• Join FlightAware (Why Join?)
  • Login
  • US Flag 
04:43AM EDT


 

Airport Tracker/Info


-or-


 

Live Flight TrackerFlight Track Log ✈ WIG7407 ✈ 05-Sep-2013 ✈ KPBG - KALB

Flight Track Log - Related Links

Times and Time Zones

All times are in EDT time to prevent confusion due to time zone crossing. See the WIG7407 flight status page for this flight to view local times or setup timezone preferences in your user account.

Time Position Orientation Groundspeed Altitude Reporting Facility
EDT Latitude Longitude Course Direction KTS MPH feet Rate Location/Type
07:56PM 44.5658 -73.4419 188° South 131 151 2,200  Level Boston Center
07:57PM 44.5292 -73.4489 188° South 134 154 3,200 960 Climbing Boston Center
07:58PM 44.4944 -73.4606 193° South 129 148 4,200 960 Climbing Boston Center
07:59PM 44.4525 -73.4686 188° South 136 157 5,200 960 Climbing Boston Center
08:00PM 44.4111 -73.4722 184° South 140 161 6,200 900 Climbing Boston Center
08:01PM 44.3722 -73.4797 188° South 141 162 7,100 840 Climbing Boston Center
08:02PM 44.3308 -73.4906 191° South 142 163 8,000 420 Climbing Boston Center
08:03PM 44.2892 -73.5039 193° South 154 177 8,000  Level Boston Center
08:04PM 44.2472 -73.5139 190° South 156 180 8,000  Level Boston Center
08:05PM 44.1997 -73.5183 184° South 160 184 8,100  Climbing Boston Center
08:06PM 44.1544 -73.5256 187° South 164 189 8,000  Descending Boston Center
08:07PM 44.1056 -73.5361 189° South 164 189 8,100  Climbing Boston Center
08:08PM 44.0614 -73.5439 187° South 162 186 8,000  Descending Boston Center
08:09PM 44.0172 -73.5522 188° South 162 186 8,100  Climbing Boston Center
08:10PM 43.9697 -73.5675 193° South 164 189 8,100  Level Boston Center
08:11PM 43.9236 -73.5761 188° South 168 193 8,100 -60 Level Boston Center
08:12PM 43.8744 -73.5833 186° South 166 191 8,000  Descending Boston Center
08:13PM 43.8306 -73.5931 189° South 162 186 8,100  Climbing Boston Center
08:14PM 43.7842 -73.6022 188° South 169 194 8,000 -60 Descending Boston Center
08:15PM 43.7347 -73.6111 187° South 168 193 8,000  Level Boston Center
08:16PM 43.7081 -73.6167 189° South 167 192 8,000  Level Boston Center
08:17PM 43.6622 -73.6219 185° South 164 189 8,000  Level Boston Center
08:18PM 43.6172 -73.6331 190° South 166 191 8,000  Level Boston Center
08:19PM 43.5728 -73.6417 188° South 161 185 8,100 60 Climbing Boston Center
08:19PM 43.5522 -73.6442 185° South 160 184 8,100  Level Boston Center
08:20PM 43.5203 -73.6475 184° South 164 189 8,100  Level Boston Center
08:21PM 43.4758 -73.6558 188° South 164 189 8,100  Level Boston Center
08:22PM 43.4308 -73.6672 190° South 165 190 8,100 -60 Level Boston Center
08:23PM 43.3864 -73.6756 188° South 169 194 8,000 -120 Descending Boston Center
08:23PM 43.3664 -73.6797 189° South 169 194 8,000  Level Boston Center
08:24PM 43.3414 -73.6869 192° South 168 193 8,000 60 Level Boston Center
08:24PM 43.3175 -73.6931 191° South 167 192 8,100 60 Climbing Boston Center
08:25PM 43.2964 -73.6981 190° South 167 192 8,100 -420 Level Boston Center
08:25PM 43.2708 -73.7033 189° South 170 196 7,700 -720 Descending Boston Center
08:26PM 43.2475 -73.7078 188° South 175 201 7,400 -660 Descending Boston Center
08:26PM 43.2214 -73.7133 189° South 179 206 7,000 -660 Descending Boston Center
08:27PM 43.1700 -73.7217 187° South 175 201 6,400 -600 Descending Boston Center
08:28PM 43.1225 -73.7286 186° South 173 199 5,800 -660 Descending Boston Center
08:29PM 43.0750 -73.7381 188° South 173 199 5,100 -660 Descending Boston Center
08:30PM 43.0264 -73.7406 182° South 175 201 4,500 -600 Descending Boston Center
08:31PM 42.9989 -73.7408 180° South 176 203 4,200 -600 Descending Boston Center
08:31PM 42.9736 -73.7403 179° South 177 204 3,900 -600 Descending Boston Center
08:32PM 42.9242 -73.7400 180° South 177 204 3,300 -480 Descending Boston Center
08:33PM 42.8769 -73.7350 176° South 172 198 3,000 -180 Descending Boston Center
08:34PM 42.8325 -73.7331 178° South 162 186 3,000 -300 Level Boston Center
08:35PM 42.8033 -73.7303 176° South 165 190 2,600 -1,020 Descending Boston Center
08:36PM 42.7522 -73.7394 188° South 175 201 1,300 -1,080 Descending Boston Center
08:37PM 42.7483 -73.7847 263° West 102 117 400 -420 Descending Boston Center
08:39PM 42.7542 -73.8056 291° West 44 51 300 -60 Descending Boston Center
08:40PM 42.7614 -73.8042 North 36 41 300  Level Boston Center